sensor_id;sensor_type;location;lat;lon;timestamp;P1;durP1;ratioP1;P2;durP2;ratioP2
1885;SDS011;943;51.568;6.998;2024-01-15T00:00:47;7.37;;;4.80;;
1885;SDS011;943;51.568;6.998;2024-01-15T00:03:17;8.03;;;5.77;;
1885;SDS011;943;51.568;6.998;2024-01-15T00:05:47;13.07;;;3.83;;
1885;SDS011;943;51.568;6.998;2024-01-15T00:08:17;5.50;;;3.47;;
1885;SDS011;943;51.568;6.998;2024-01-15T00:10:46;4.93;;;3.83;;
1885;SDS011;943;51.568;6.998;2024-01-15T00:13:16;7.10;;;3.60;;
1885;SDS011;943;51.568;6.998;2024-01-15T00:15:47;10.57;;;5.93;;
1885;SDS011;943;51.568;6.998;2024-01-15T00:18:17;14.63;;;7.70;;
1885;SDS011;943;51.568;6.998;2024-01-15T00:20:46;5.30;;;4.60;;
1885;SDS011;943;51.568;6.998;2024-01-15T00:23:16;10.03;;;4.20;;
1885;SDS011;943;51.568;6.998;2024-01-15T00:25:45;6.13;;;2.83;;
1885;SDS011;943;51.568;6.998;2024-01-15T00:28:15;7.93;;;5.13;;
1885;SDS011;943;51.568;6.998;2024-01-15T00:30:46;11.60;;;7.20;;
1885;SDS011;943;51.568;6.998;2024-01-15T00:33:16;11.37;;;3.63;;
1885;SDS011;943;51.568;6.998;2024-01-15T00:35:46;5.27;;;3.87;;
1885;SDS011;943;51.568;6.998;2024-01-15T00:38:15;11.10;;;3.90;;
1885;SDS011;943;51.568;6.998;2024-01-15T00:40:46;4.10;;;3.73;;
1885;SDS011;943;51.568;6.998;2024-01-15T00:43:16;16.47;;;4.57;;
1885;SDS011;943;51.568;6.998;2024-01-15T00:45:49;9.90;;;4.63;;
1885;SDS011;943;51.568;6.998;2024-01-15T00:48:19;8.67;;;3.57;;
1885;SDS011;943;51.568;6.998;2024-01-15T00:50:48;6.43;;;3.87;;
1885;SDS011;943;51.568;6.998;2024-01-15T00:53:19;8.30;;;4.33;;
1885;SDS011;943;51.568;6.998;2024-01-15T00:55:51;12.50;;;4.83;;
1885;SDS011;943;51.568;6.998;2024-01-15T00:58:21;6.60;;;4.30;;
1885;SDS011;943;51.568;6.998;2024-01-15T01:00:51;4.77;;;2.00;;
1885;SDS011;943;51.568;6.998;2024-01-15T01:03:21;4.70;;;2.83;;
1885;SDS011;943;51.568;6.998;2024-01-15T01:05:51;8.30;;;4.33;;
1885;SDS011;943;51.568;6.998;2024-01-15T01:08:21;8.23;;;4.37;;
1885;SDS011;943;51.568;6.998;2024-01-15T01:10:50;6.87;;;4.07;;
1885;SDS011;943;51.568;6.998;2024-01-15T01:13:20;4.87;;;2.47;;
1885;SDS011;943;51.568;6.998;2024-01-15T01:15:50;8.30;;;4.43;;
1885;SDS011;943;51.568;6.998;2024-01-15T01:18:19;7.50;;;6.83;;
1885;SDS011;943;51.568;6.998;2024-01-15T01:20:49;5.13;;;2.97;;
1885;SDS011;943;51.568;6.998;2024-01-15T01:23:19;5.60;;;2.37;;
1885;SDS011;943;51.568;6.998;2024-01-15T01:25:49;3.13;;;2.03;;
1885;SDS011;943;51.568;6.998;2024-01-15T01:28:19;5.90;;;4.13;;
1885;SDS011;943;51.568;6.998;2024-01-15T01:30:48;4.17;;;2.63;;
1885;SDS011;943;51.568;6.998;2024-01-15T01:33:18;17.57;;;5.87;;
1885;SDS011;943;51.568;6.998;2024-01-15T01:35:49;6.80;;;4.70;;
1885;SDS011;943;51.568;6.998;2024-01-15T01:38:18;5.70;;;2.90;;
1885;SDS011;943;51.568;6.998;2024-01-15T01:40:48;6.10;;;3.20;;
1885;SDS011;943;51.568;6.998;2024-01-15T01:43:18;7.83;;;5.17;;
1885;SDS011;943;51.568;6.998;2024-01-15T01:45:48;8.97;;;4.30;;
1885;SDS011;943;51.568;6.998;2024-01-15T01:48:17;4.53;;;1.90;;
1885;SDS011;943;51.568;6.998;2024-01-15T01:50:48;4.27;;;3.30;;
1885;SDS011;943;51.568;6.998;2024-01-15T01:53:18;3.40;;;1.93;;
1885;SDS011;943;51.568;6.998;2024-01-15T01:55:48;16.83;;;4.50;;
1885;SDS011;943;51.568;6.998;2024-01-15T01:58:22;6.60;;;3.77;;
1885;SDS011;943;51.568;6.998;2024-01-15T02:00:53;4.43;;;2.70;;
1885;SDS011;943;51.568;6.998;2024-01-15T02:03:24;7.20;;;2.50;;
1885;SDS011;943;51.568;6.998;2024-01-15T02:05:56;4.20;;;3.33;;
1885;SDS011;943;51.568;6.998;2024-01-15T02:08:28;12.70;;;6.37;;
1885;SDS011;943;51.568;6.998;2024-01-15T02:10:59;10.17;;;6.20;;
1885;SDS011;943;51.568;6.998;2024-01-15T02:13:29;5.43;;;3.87;;
1885;SDS011;943;51.568;6.998;2024-01-15T02:15:59;3.63;;;2.40;;
1885;SDS011;943;51.568;6.998;2024-01-15T02:18:29;16.87;;;4.23;;
1885;SDS011;943;51.568;6.998;2024-01-15T02:21:12;3.53;;;2.37;;
1885;SDS011;943;51.568;6.998;2024-01-15T02:23:42;4.33;;;3.93;;
1885;SDS011;943;51.568;6.998;2024-01-15T02:26:11;6.27;;;2.63;;
1885;SDS011;943;51.568;6.998;2024-01-15T02:28:42;7.20;;;3.13;;
1885;SDS011;943;51.568;6.998;2024-01-15T02:31:15;4.07;;;2.97;;
1885;SDS011;943;51.568;6.998;2024-01-15T02:33:45;4.43;;;2.93;;
1885;SDS011;943;51.568;6.998;2024-01-15T02:36:15;6.37;;;2.97;;
1885;SDS011;943;51.568;6.998;2024-01-15T02:38:45;9.47;;;3.90;;
1885;SDS011;943;51.568;6.998;2024-01-15T02:41:15;5.83;;;4.93;;
1885;SDS011;943;51.568;6.998;2024-01-15T02:43:45;3.70;;;2.50;;
1885;SDS011;943;51.568;6.998;2024-01-15T02:46:14;4.87;;;3.23;;
1885;SDS011;943;51.568;6.998;2024-01-15T02:48:45;2.63;;;1.47;;
1885;SDS011;943;51.568;6.998;2024-01-15T02:51:15;4.70;;;2.40;;
1885;SDS011;943;51.568;6.998;2024-01-15T02:53:45;3.70;;;2.63;;
1885;SDS011;943;51.568;6.998;2024-01-15T02:56:17;2.50;;;1.63;;
1885;SDS011;943;51.568;6.998;2024-01-15T02:58:46;4.70;;;3.30;;
1885;SDS011;943;51.568;6.998;2024-01-15T03:01:18;5.70;;;3.80;;
1885;SDS011;943;51.568;6.998;2024-01-15T03:03:49;5.83;;;3.40;;
1885;SDS011;943;51.568;6.998;2024-01-15T03:06:19;3.50;;;2.87;;
1885;SDS011;943;51.568;6.998;2024-01-15T03:08:49;5.17;;;3.57;;
1885;SDS011;943;51.568;6.998;2024-01-15T03:11:19;6.33;;;2.83;;
1885;SDS011;943;51.568;6.998;2024-01-15T03:13:48;6.67;;;3.10;;
1885;SDS011;943;51.568;6.998;2024-01-15T03:16:18;6.73;;;2.50;;
1885;SDS011;943;51.568;6.998;2024-01-15T03:18:50;4.30;;;2.53;;
1885;SDS011;943;51.568;6.998;2024-01-15T03:21:19;8.53;;;2.53;;
1885;SDS011;943;51.568;6.998;2024-01-15T03:23:49;13.07;;;5.23;;
1885;SDS011;943;51.568;6.998;2024-01-15T03:26:19;10.70;;;3.10;;
1885;SDS011;943;51.568;6.998;2024-01-15T03:28:48;7.70;;;4.40;;
1885;SDS011;943;51.568;6.998;2024-01-15T03:31:18;5.93;;;3.30;;
1885;SDS011;943;51.568;6.998;2024-01-15T03:33:48;4.77;;;2.63;;
1885;SDS011;943;51.568;6.998;2024-01-15T03:36:17;3.60;;;2.70;;
1885;SDS011;943;51.568;6.998;2024-01-15T03:38:47;2.40;;;1.83;;
1885;SDS011;943;51.568;6.998;2024-01-15T03:41:17;7.17;;;3.07;;
1885;SDS011;943;51.568;6.998;2024-01-15T03:43:47;4.70;;;2.27;;
1885;SDS011;943;51.568;6.998;2024-01-15T03:46:16;5.30;;;4.73;;
1885;SDS011;943;51.568;6.998;2024-01-15T03:48:46;8.57;;;4.63;;
1885;SDS011;943;51.568;6.998;2024-01-15T03:51:18;2.50;;;1.40;;
1885;SDS011;943;51.568;6.998;2024-01-15T03:53:48;3.00;;;1.70;;
1885;SDS011;943;51.568;6.998;2024-01-15T03:56:18;2.57;;;1.60;;
1885;SDS011;943;51.568;6.998;2024-01-15T03:58:48;2.77;;;1.87;;
1885;SDS011;943;51.568;6.998;2024-01-15T04:01:18;3.47;;;1.70;;
1885;SDS011;943;51.568;6.998;2024-01-15T04:03:47;2.43;;;2.23;;
1885;SDS011;943;51.568;6.998;2024-01-15T04:06:17;2.77;;;1.60;;
1885;SDS011;943;51.568;6.998;2024-01-15T04:08:47;2.80;;;1.67;;
1885;SDS011;943;51.568;6.998;2024-01-15T04:11:17;4.23;;;1.27;;
1885;SDS011;943;51.568;6.998;2024-01-15T04:13:46;3.67;;;3.33;;
1885;SDS011;943;51.568;6.998;2024-01-15T04:16:16;7.10;;;2.60;;
1885;SDS011;943;51.568;6.998;2024-01-15T04:18:46;2.43;;;1.63;;
1885;SDS011;943;51.568;6.998;2024-01-15T04:21:16;5.53;;;3.07;;
1885;SDS011;943;51.568;6.998;2024-01-15T04:23:47;7.10;;;3.27;;
1885;SDS011;943;51.568;6.998;2024-01-15T04:26:16;4.20;;;3.30;;
1885;SDS011;943;51.568;6.998;2024-01-15T04:28:46;2.87;;;1.60;;
1885;SDS011;943;51.568;6.998;2024-01-15T04:31:24;3.30;;;1.83;;
1885;SDS011;943;51.568;6.998;2024-01-15T04:33:55;2.93;;;2.10;;
1885;SDS011;943;51.568;6.998;2024-01-15T04:36:25;2.53;;;1.17;;
1885;SDS011;943;51.568;6.998;2024-01-15T04:38:55;6.57;;;2.27;;
1885;SDS011;943;51.568;6.998;2024-01-15T04:41:24;4.20;;;2.20;;
1885;SDS011;943;51.568;6.998;2024-01-15T04:43:54;4.73;;;1.83;;
1885;SDS011;943;51.568;6.998;2024-01-15T04:46:24;6.33;;;1.77;;
1885;SDS011;943;51.568;6.998;2024-01-15T04:48:54;3.10;;;1.90;;
1885;SDS011;943;51.568;6.998;2024-01-15T04:51:24;5.47;;;1.70;;
1885;SDS011;943;51.568;6.998;2024-01-15T04:53:54;10.80;;;2.80;;
1885;SDS011;943;51.568;6.998;2024-01-15T04:56:23;3.33;;;2.03;;
1885;SDS011;943;51.568;6.998;2024-01-15T04:58:53;4.10;;;3.30;;
1885;SDS011;943;51.568;6.998;2024-01-15T05:01:22;3.13;;;2.40;;
1885;SDS011;943;51.568;6.998;2024-01-15T05:03:52;2.20;;;1.17;;
1885;SDS011;943;51.568;6.998;2024-01-15T05:06:25;5.17;;;4.00;;
1885;SDS011;943;51.568;6.998;2024-01-15T05:08:55;3.43;;;2.27;;
1885;SDS011;943;51.568;6.998;2024-01-15T05:11:25;4.70;;;2.17;;
1885;SDS011;943;51.568;6.998;2024-01-15T05:13:55;26.43;;;3.07;;
1885;SDS011;943;51.568;6.998;2024-01-15T05:16:24;4.50;;;3.20;;
1885;SDS011;943;51.568;6.998;2024-01-15T05:18:54;3.87;;;3.27;;
1885;SDS011;943;51.568;6.998;2024-01-15T05:21:24;5.17;;;2.43;;
1885;SDS011;943;51.568;6.998;2024-01-15T05:23:53;2.60;;;1.70;;
1885;SDS011;943;51.568;6.998;2024-01-15T05:26:22;2.67;;;1.90;;
1885;SDS011;943;51.568;6.998;2024-01-15T05:28:52;4.43;;;2.80;;
1885;SDS011;943;51.568;6.998;2024-01-15T05:31:21;4.40;;;1.70;;
1885;SDS011;943;51.568;6.998;2024-01-15T05:33:51;2.37;;;1.67;;
1885;SDS011;943;51.568;6.998;2024-01-15T05:36:22;3.73;;;2.27;;
1885;SDS011;943;51.568;6.998;2024-01-15T05:38:52;3.63;;;3.30;;
1885;SDS011;943;51.568;6.998;2024-01-15T05:41:21;3.43;;;2.53;;
1885;SDS011;943;51.568;6.998;2024-01-15T05:43:51;3.00;;;2.70;;
1885;SDS011;943;51.568;6.998;2024-01-15T05:46:20;5.27;;;2.93;;
1885;SDS011;943;51.568;6.998;2024-01-15T05:48:50;3.47;;;1.77;;
1885;SDS011;943;51.568;6.998;2024-01-15T05:51:19;4.33;;;1.83;;
1885;SDS011;943;51.568;6.998;2024-01-15T05:53:49;6.30;;;1.67;;
1885;SDS011;943;51.568;6.998;2024-01-15T05:56:19;2.87;;;1.90;;
1885;SDS011;943;51.568;6.998;2024-01-15T05:58:49;3.30;;;1.70;;
1885;SDS011;943;51.568;6.998;2024-01-15T06:01:20;5.67;;;2.00;;
1885;SDS011;943;51.568;6.998;2024-01-15T06:03:49;3.33;;;1.63;;
1885;SDS011;943;51.568;6.998;2024-01-15T06:06:20;3.47;;;1.77;;
1885;SDS011;943;51.568;6.998;2024-01-15T06:08:49;3.80;;;2.00;;
1885;SDS011;943;51.568;6.998;2024-01-15T06:11:19;3.70;;;2.13;;
1885;SDS011;943;51.568;6.998;2024-01-15T06:13:48;4.50;;;2.77;;
1885;SDS011;943;51.568;6.998;2024-01-15T06:16:18;2.60;;;1.37;;
1885;SDS011;943;51.568;6.998;2024-01-15T06:18:51;5.17;;;2.30;;
1885;SDS011;943;51.568;6.998;2024-01-15T06:21:21;4.10;;;2.33;;
1885;SDS011;943;51.568;6.998;2024-01-15T06:23:51;3.30;;;1.40;;
1885;SDS011;943;51.568;6.998;2024-01-15T06:26:21;3.57;;;1.80;;
1885;SDS011;943;51.568;6.998;2024-01-15T06:28:51;3.50;;;2.43;;
1885;SDS011;943;51.568;6.998;2024-01-15T06:31:21;3.30;;;2.07;;
1885;SDS011;943;51.568;6.998;2024-01-15T06:33:51;2.77;;;1.60;;
1885;SDS011;943;51.568;6.998;2024-01-15T06:36:21;3.50;;;2.13;;
1885;SDS011;943;51.568;6.998;2024-01-15T06:38:50;2.60;;;2.00;;
1885;SDS011;943;51.568;6.998;2024-01-15T06:41:20;2.83;;;1.90;;
1885;SDS011;943;51.568;6.998;2024-01-15T06:43:49;2.60;;;1.53;;
1885;SDS011;943;51.568;6.998;2024-01-15T06:46:21;3.00;;;1.73;;
1885;SDS011;943;51.568;6.998;2024-01-15T06:48:51;2.80;;;1.57;;
1885;SDS011;943;51.568;6.998;2024-01-15T06:51:21;5.57;;;2.57;;
1885;SDS011;943;51.568;6.998;2024-01-15T06:53:50;3.93;;;1.53;;
1885;SDS011;943;51.568;6.998;2024-01-15T06:56:20;2.00;;;0.97;;
1885;SDS011;943;51.568;6.998;2024-01-15T06:58:50;2.43;;;1.63;;
1885;SDS011;943;51.568;6.998;2024-01-15T07:01:19;2.13;;;0.80;;
1885;SDS011;943;51.568;6.998;2024-01-15T07:03:50;4.00;;;3.60;;
1885;SDS011;943;51.568;6.998;2024-01-15T07:06:20;1.97;;;1.20;;
1885;SDS011;943;51.568;6.998;2024-01-15T07:08:50;2.57;;;1.00;;
1885;SDS011;943;51.568;6.998;2024-01-15T07:11:20;3.33;;;1.33;;
1885;SDS011;943;51.568;6.998;2024-01-15T07:13:49;2.37;;;1.43;;
1885;SDS011;943;51.568;6.998;2024-01-15T07:16:19;2.77;;;1.20;;
1885;SDS011;943;51.568;6.998;2024-01-15T07:19:03;3.67;;;1.10;;
1885;SDS011;943;51.568;6.998;2024-01-15T07:21:34;2.93;;;1.23;;
1885;SDS011;943;51.568;6.998;2024-01-15T07:24:03;2.00;;;0.80;;
1885;SDS011;943;51.568;6.998;2024-01-15T07:26:33;1.80;;;0.70;;
1885;SDS011;943;51.568;6.998;2024-01-15T07:29:03;2.00;;;1.00;;
1885;SDS011;943;51.568;6.998;2024-01-15T07:31:33;1.80;;;0.60;;
1885;SDS011;943;51.568;6.998;2024-01-15T07:34:03;2.00;;;0.80;;
1885;SDS011;943;51.568;6.998;2024-01-15T07:36:33;2.20;;;0.97;;
1885;SDS011;943;51.568;6.998;2024-01-15T07:39:02;3.10;;;0.80;;
1885;SDS011;943;51.568;6.998;2024-01-15T07:41:34;2.67;;;1.37;;
1885;SDS011;943;51.568;6.998;2024-01-15T07:44:05;2.77;;;1.00;;
1885;SDS011;943;51.568;6.998;2024-01-15T07:46:35;1.97;;;0.90;;
1885;SDS011;943;51.568;6.998;2024-01-15T07:49:05;1.90;;;0.90;;
1885;SDS011;943;51.568;6.998;2024-01-15T07:51:35;2.20;;;1.37;;
1885;SDS011;943;51.568;6.998;2024-01-15T07:54:08;2.70;;;1.60;;
1885;SDS011;943;51.568;6.998;2024-01-15T07:56:59;2.27;;;1.20;;
1885;SDS011;943;51.568;6.998;2024-01-15T07:59:31;1.77;;;0.60;;
1885;SDS011;943;51.568;6.998;2024-01-15T08:02:03;2.00;;;0.90;;
1885;SDS011;943;51.568;6.998;2024-01-15T08:04:33;2.33;;;0.90;;
1885;SDS011;943;51.568;6.998;2024-01-15T08:07:05;2.50;;;1.03;;
1885;SDS011;943;51.568;6.998;2024-01-15T08:09:37;2.00;;;0.80;;
1885;SDS011;943;51.568;6.998;2024-01-15T08:12:07;2.10;;;1.10;;
1885;SDS011;943;51.568;6.998;2024-01-15T08:14:41;2.33;;;1.27;;
1885;SDS011;943;51.568;6.998;2024-01-15T08:17:10;3.57;;;1.83;;
1885;SDS011;943;51.568;6.998;2024-01-15T08:19:40;2.60;;;1.27;;
1885;SDS011;943;51.568;6.998;2024-01-15T08:22:12;5.20;;;2.83;;
1885;SDS011;943;51.568;6.998;2024-01-15T08:24:42;1.90;;;0.70;;
1885;SDS011;943;51.568;6.998;2024-01-15T08:27:13;2.30;;;1.17;;
1885;SDS011;943;51.568;6.998;2024-01-15T08:29:43;2.63;;;1.83;;
1885;SDS011;943;51.568;6.998;2024-01-15T08:32:14;1.90;;;1.00;;
1885;SDS011;943;51.568;6.998;2024-01-15T08:34:45;2.67;;;0.90;;
1885;SDS011;943;51.568;6.998;2024-01-15T08:37:20;3.23;;;1.37;;
1885;SDS011;943;51.568;6.998;2024-01-15T08:39:50;4.00;;;2.00;;
1885;SDS011;943;51.568;6.998;2024-01-15T08:42:19;1.97;;;1.10;;
1885;SDS011;943;51.568;6.998;2024-01-15T08:44:49;3.03;;;2.40;;
1885;SDS011;943;51.568;6.998;2024-01-15T08:47:19;4.73;;;1.23;;
1885;SDS011;943;51.568;6.998;2024-01-15T08:49:49;4.77;;;2.77;;
1885;SDS011;943;51.568;6.998;2024-01-15T08:52:19;2.67;;;1.30;;
1885;SDS011;943;51.568;6.998;2024-01-15T08:54:49;3.20;;;1.80;;
1885;SDS011;943;51.568;6.998;2024-01-15T08:57:20;5.83;;;1.93;;
1885;SDS011;943;51.568;6.998;2024-01-15T08:59:51;4.73;;;2.03;;
1885;SDS011;943;51.568;6.998;2024-01-15T09:02:22;4.03;;;2.30;;
1885;SDS011;943;51.568;6.998;2024-01-15T09:04:53;2.50;;;1.40;;
1885;SDS011;943;51.568;6.998;2024-01-15T09:07:22;3.00;;;1.83;;
1885;SDS011;943;51.568;6.998;2024-01-15T09:09:55;3.90;;;1.60;;
1885;SDS011;943;51.568;6.998;2024-01-15T09:12:27;4.27;;;1.77;;
1885;SDS011;943;51.568;6.998;2024-01-15T09:14:58;2.73;;;1.97;;
1885;SDS011;943;51.568;6.998;2024-01-15T09:17:27;2.33;;;1.50;;
1885;SDS011;943;51.568;6.998;2024-01-15T09:19:59;3.10;;;2.80;;
1885;SDS011;943;51.568;6.998;2024-01-15T09:22:39;2.40;;;1.33;;
1885;SDS011;943;51.568;6.998;2024-01-15T09:25:14;9.13;;;1.87;;
1885;SDS011;943;51.568;6.998;2024-01-15T09:27:44;2.60;;;1.43;;
1885;SDS011;943;51.568;6.998;2024-01-15T09:30:14;3.30;;;2.37;;
1885;SDS011;943;51.568;6.998;2024-01-15T09:32:44;2.20;;;1.40;;
1885;SDS011;943;51.568;6.998;2024-01-15T09:35:14;2.83;;;1.83;;
1885;SDS011;943;51.568;6.998;2024-01-15T09:37:44;2.87;;;1.87;;
1885;SDS011;943;51.568;6.998;2024-01-15T09:40:14;2.50;;;1.40;;
1885;SDS011;943;51.568;6.998;2024-01-15T09:42:48;3.33;;;3.03;;
1885;SDS011;943;51.568;6.998;2024-01-15T09:45:19;2.70;;;2.00;;
1885;SDS011;943;51.568;6.998;2024-01-15T09:47:50;7.87;;;2.13;;
1885;SDS011;943;51.568;6.998;2024-01-15T09:50:21;1.80;;;0.70;;
1885;SDS011;943;51.568;6.998;2024-01-15T09:52:51;2.30;;;1.10;;
1885;SDS011;943;51.568;6.998;2024-01-15T09:55:22;2.50;;;1.10;;
1885;SDS011;943;51.568;6.998;2024-01-15T09:57:53;2.17;;;0.90;;
1885;SDS011;943;51.568;6.998;2024-01-15T10:00:26;3.97;;;1.10;;
1885;SDS011;943;51.568;6.998;2024-01-15T10:02:59;4.97;;;1.43;;
1885;SDS011;943;51.568;6.998;2024-01-15T10:05:31;2.00;;;0.90;;
1885;SDS011;943;51.568;6.998;2024-01-15T10:08:01;2.40;;;1.47;;
1885;SDS011;943;51.568;6.998;2024-01-15T10:10:33;2.50;;;0.90;;
1885;SDS011;943;51.568;6.998;2024-01-15T10:13:06;2.00;;;1.00;;
1885;SDS011;943;51.568;6.998;2024-01-15T10:15:37;1.80;;;0.70;;
1885;SDS011;943;51.568;6.998;2024-01-15T10:18:07;2.30;;;1.30;;
1885;SDS011;943;51.568;6.998;2024-01-15T10:20:38;2.13;;;0.83;;
1885;SDS011;943;51.568;6.998;2024-01-15T10:23:08;1.80;;;0.80;;
1885;SDS011;943;51.568;6.998;2024-01-15T10:25:38;2.50;;;1.80;;
1885;SDS011;943;51.568;6.998;2024-01-15T10:28:11;2.47;;;1.33;;
1885;SDS011;943;51.568;6.998;2024-01-15T10:30:42;2.53;;;1.27;;
1885;SDS011;943;51.568;6.998;2024-01-15T10:33:12;1.90;;;0.70;;
1885;SDS011;943;51.568;6.998;2024-01-15T10:35:57;2.47;;;1.03;;
1885;SDS011;943;51.568;6.998;2024-01-15T10:38:29;3.47;;;2.00;;
1885;SDS011;943;51.568;6.998;2024-01-15T10:40:59;5.90;;;2.77;;
1885;SDS011;943;51.568;6.998;2024-01-15T10:43:30;3.20;;;2.07;;
1885;SDS011;943;51.568;6.998;2024-01-15T10:45:59;4.03;;;1.63;;
1885;SDS011;943;51.568;6.998;2024-01-15T10:48:30;2.07;;;1.13;;
1885;SDS011;943;51.568;6.998;2024-01-15T10:51:04;2.67;;;1.70;;
1885;SDS011;943;51.568;6.998;2024-01-15T10:53:43;1.80;;;0.70;;
1885;SDS011;943;51.568;6.998;2024-01-15T10:56:14;2.20;;;1.27;;
1885;SDS011;943;51.568;6.998;2024-01-15T10:58:45;2.53;;;1.37;;
1885;SDS011;943;51.568;6.998;2024-01-15T11:01:17;2.30;;;1.07;;
1885;SDS011;943;51.568;6.998;2024-01-15T11:03:54;1.90;;;1.00;;
1885;SDS011;943;51.568;6.998;2024-01-15T11:06:27;2.77;;;1.47;;
1885;SDS011;943;51.568;6.998;2024-01-15T11:09:13;3.00;;;1.53;;
1885;SDS011;943;51.568;6.998;2024-01-15T11:11:47;2.90;;;1.33;;
1885;SDS011;943;51.568;6.998;2024-01-15T11:14:47;1.90;;;0.80;;
1885;SDS011;943;51.568;6.998;2024-01-15T11:17:18;1.97;;;0.80;;
1885;SDS011;943;51.568;6.998;2024-01-15T11:19:50;4.53;;;0.93;;
1885;SDS011;943;51.568;6.998;2024-01-15T11:25:18;5.93;;;2.00;;
1885;SDS011;943;51.568;6.998;2024-01-15T11:27:52;2.30;;;1.10;;
1885;SDS011;943;51.568;6.998;2024-01-15T11:30:24;3.80;;;1.20;;
1885;SDS011;943;51.568;6.998;2024-01-15T11:32:55;3.50;;;1.60;;
1885;SDS011;943;51.568;6.998;2024-01-15T11:35:25;8.87;;;3.07;;
1885;SDS011;943;51.568;6.998;2024-01-15T11:38:28;1.83;;;0.70;;
1885;SDS011;943;51.568;6.998;2024-01-15T11:40:59;2.07;;;0.90;;
1885;SDS011;943;51.568;6.998;2024-01-15T11:43:43;2.13;;;0.70;;
1885;SDS011;943;51.568;6.998;2024-01-15T11:46:13;4.07;;;1.23;;
1885;SDS011;943;51.568;6.998;2024-01-15T11:48:47;2.20;;;0.70;;
1885;SDS011;943;51.568;6.998;2024-01-15T11:51:34;2.10;;;0.90;;
1885;SDS011;943;51.568;6.998;2024-01-15T11:54:22;2.03;;;0.87;;
1885;SDS011;943;51.568;6.998;2024-01-15T11:57:00;1.97;;;0.73;;
1885;SDS011;943;51.568;6.998;2024-01-15T11:59:47;2.30;;;1.00;;
1885;SDS011;943;51.568;6.998;2024-01-15T12:02:17;2.87;;;1.70;;
1885;SDS011;943;51.568;6.998;2024-01-15T12:04:47;4.23;;;1.87;;
1885;SDS011;943;51.568;6.998;2024-01-15T12:07:16;3.10;;;1.70;;
1885;SDS011;943;51.568;6.998;2024-01-15T12:09:46;2.00;;;0.90;;
1885;SDS011;943;51.568;6.998;2024-01-15T12:12:20;3.00;;;1.40;;
1885;SDS011;943;51.568;6.998;2024-01-15T12:15:29;2.60;;;1.30;;
1885;SDS011;943;51.568;6.998;2024-01-15T12:18:02;5.10;;;1.77;;
1885;SDS011;943;51.568;6.998;2024-01-15T12:20:32;2.60;;;1.90;;
1885;SDS011;943;51.568;6.998;2024-01-15T12:23:03;1.90;;;0.90;;
1885;SDS011;943;51.568;6.998;2024-01-15T12:25:36;2.00;;;1.00;;
1885;SDS011;943;51.568;6.998;2024-01-15T12:28:07;4.50;;;2.87;;
1885;SDS011;943;51.568;6.998;2024-01-15T12:30:38;3.17;;;2.67;;
1885;SDS011;943;51.568;6.998;2024-01-15T12:33:08;3.33;;;1.30;;
1885;SDS011;943;51.568;6.998;2024-01-15T12:35:38;2.20;;;1.20;;
1885;SDS011;943;51.568;6.998;2024-01-15T12:38:08;2.00;;;0.93;;
1885;SDS011;943;51.568;6.998;2024-01-15T12:40:40;3.10;;;1.37;;
1885;SDS011;943;51.568;6.998;2024-01-15T12:43:17;2.47;;;1.00;;
1885;SDS011;943;51.568;6.998;2024-01-15T12:45:47;4.10;;;1.73;;
1885;SDS011;943;51.568;6.998;2024-01-15T12:48:18;2.73;;;1.03;;
1885;SDS011;943;51.568;6.998;2024-01-15T12:50:49;3.73;;;2.23;;
1885;SDS011;943;51.568;6.998;2024-01-15T12:53:21;2.40;;;1.20;;
1885;SDS011;943;51.568;6.998;2024-01-15T12:55:51;2.60;;;1.30;;
1885;SDS011;943;51.568;6.998;2024-01-15T12:58:21;2.17;;;1.00;;
1885;SDS011;943;51.568;6.998;2024-01-15T13:00:51;2.77;;;2.00;;
1885;SDS011;943;51.568;6.998;2024-01-15T13:03:22;5.00;;;1.23;;
1885;SDS011;943;51.568;6.998;2024-01-15T13:05:52;2.57;;;1.00;;
1885;SDS011;943;51.568;6.998;2024-01-15T13:08:22;2.40;;;1.47;;
1885;SDS011;943;51.568;6.998;2024-01-15T13:10:58;2.90;;;2.50;;
1885;SDS011;943;51.568;6.998;2024-01-15T13:13:28;2.20;;;1.20;;
1885;SDS011;943;51.568;6.998;2024-01-15T13:16:02;2.67;;;1.40;;
1885;SDS011;943;51.568;6.998;2024-01-15T13:18:32;2.60;;;1.00;;
1885;SDS011;943;51.568;6.998;2024-01-15T13:21:03;4.77;;;2.57;;
1885;SDS011;943;51.568;6.998;2024-01-15T13:23:33;2.50;;;1.10;;
1885;SDS011;943;51.568;6.998;2024-01-15T13:26:05;2.00;;;0.83;;
1885;SDS011;943;51.568;6.998;2024-01-15T13:28:35;9.27;;;1.30;;
1885;SDS011;943;51.568;6.998;2024-01-15T13:31:05;1.90;;;0.90;;
1885;SDS011;943;51.568;6.998;2024-01-15T13:33:36;2.00;;;0.97;;
1885;SDS011;943;51.568;6.998;2024-01-15T13:36:10;2.10;;;1.03;;
1885;SDS011;943;51.568;6.998;2024-01-15T13:38:39;2.07;;;1.13;;
1885;SDS011;943;51.568;6.998;2024-01-15T13:41:10;2.23;;;1.07;;
1885;SDS011;943;51.568;6.998;2024-01-15T13:43:40;2.00;;;0.93;;
1885;SDS011;943;51.568;6.998;2024-01-15T13:46:12;1.80;;;0.60;;
1885;SDS011;943;51.568;6.998;2024-01-15T13:48:42;1.97;;;0.73;;
1885;SDS011;943;51.568;6.998;2024-01-15T13:51:12;2.00;;;0.80;;
1885;SDS011;943;51.568;6.998;2024-01-15T13:53:42;2.13;;;0.93;;
1885;SDS011;943;51.568;6.998;2024-01-15T13:56:11;1.77;;;0.67;;
1885;SDS011;943;51.568;6.998;2024-01-15T13:58:45;1.80;;;0.70;;
1885;SDS011;943;51.568;6.998;2024-01-15T14:01:17;2.30;;;1.10;;
1885;SDS011;943;51.568;6.998;2024-01-15T14:03:47;2.10;;;1.10;;
1885;SDS011;943;51.568;6.998;2024-01-15T14:06:16;1.90;;;0.80;;
1885;SDS011;943;51.568;6.998;2024-01-15T14:08:46;3.07;;;1.23;;
1885;SDS011;943;51.568;6.998;2024-01-15T14:11:16;2.50;;;1.30;;
1885;SDS011;943;51.568;6.998;2024-01-15T14:13:45;3.60;;;1.63;;
1885;SDS011;943;51.568;6.998;2024-01-15T14:16:16;1.90;;;0.70;;
1885;SDS011;943;51.568;6.998;2024-01-15T14:18:52;3.07;;;1.80;;
1885;SDS011;943;51.568;6.998;2024-01-15T14:21:21;3.50;;;2.27;;
1885;SDS011;943;51.568;6.998;2024-01-15T14:23:52;2.20;;;0.90;;
1885;SDS011;943;51.568;6.998;2024-01-15T14:26:22;2.00;;;0.80;;
1885;SDS011;943;51.568;6.998;2024-01-15T14:28:51;3.20;;;1.50;;
1885;SDS011;943;51.568;6.998;2024-01-15T14:31:21;1.90;;;0.90;;
1885;SDS011;943;51.568;6.998;2024-01-15T14:33:56;2.30;;;1.47;;
1885;SDS011;943;51.568;6.998;2024-01-15T14:36:30;2.17;;;1.07;;
1885;SDS011;943;51.568;6.998;2024-01-15T14:39:00;2.53;;;1.30;;
1885;SDS011;943;51.568;6.998;2024-01-15T14:41:30;2.30;;;1.00;;
1885;SDS011;943;51.568;6.998;2024-01-15T14:44:00;2.73;;;1.70;;
1885;SDS011;943;51.568;6.998;2024-01-15T14:46:30;2.07;;;1.10;;
1885;SDS011;943;51.568;6.998;2024-01-15T14:49:01;2.27;;;0.80;;
1885;SDS011;943;51.568;6.998;2024-01-15T14:51:31;2.67;;;0.70;;
1885;SDS011;943;51.568;6.998;2024-01-15T14:54:01;2.00;;;0.70;;
1885;SDS011;943;51.568;6.998;2024-01-15T14:56:31;2.53;;;0.90;;
1885;SDS011;943;51.568;6.998;2024-01-15T14:59:01;1.80;;;0.80;;
1885;SDS011;943;51.568;6.998;2024-01-15T15:01:33;3.07;;;1.63;;
1885;SDS011;943;51.568;6.998;2024-01-15T15:04:03;4.47;;;1.43;;
1885;SDS011;943;51.568;6.998;2024-01-15T15:06:33;2.13;;;0.97;;
1885;SDS011;943;51.568;6.998;2024-01-15T15:09:03;1.83;;;0.77;;
1885;SDS011;943;51.568;6.998;2024-01-15T15:11:40;1.90;;;0.77;;
1885;SDS011;943;51.568;6.998;2024-01-15T15:14:10;1.90;;;0.70;;
1885;SDS011;943;51.568;6.998;2024-01-15T15:16:40;2.30;;;0.90;;
1885;SDS011;943;51.568;6.998;2024-01-15T15:19:09;1.93;;;0.80;;
1885;SDS011;943;51.568;6.998;2024-01-15T15:21:40;2.00;;;0.80;;
1885;SDS011;943;51.568;6.998;2024-01-15T15:24:10;2.83;;;1.20;;
1885;SDS011;943;51.568;6.998;2024-01-15T15:26:40;2.00;;;1.00;;
1885;SDS011;943;51.568;6.998;2024-01-15T15:29:11;2.13;;;1.00;;
1885;SDS011;943;51.568;6.998;2024-01-15T15:31:41;2.00;;;0.90;;
1885;SDS011;943;51.568;6.998;2024-01-15T15:34:11;4.87;;;2.07;;
1885;SDS011;943;51.568;6.998;2024-01-15T15:36:41;1.97;;;0.80;;
1885;SDS011;943;51.568;6.998;2024-01-15T15:39:11;6.03;;;1.50;;
1885;SDS011;943;51.568;6.998;2024-01-15T15:41:45;5.50;;;2.07;;
1885;SDS011;943;51.568;6.998;2024-01-15T15:44:17;4.93;;;2.83;;
1885;SDS011;943;51.568;6.998;2024-01-15T15:46:46;5.60;;;1.47;;
1885;SDS011;943;51.568;6.998;2024-01-15T15:49:17;1.90;;;0.70;;
1885;SDS011;943;51.568;6.998;2024-01-15T15:51:46;3.87;;;1.20;;
1885;SDS011;943;51.568;6.998;2024-01-15T15:54:17;2.13;;;0.90;;
1885;SDS011;943;51.568;6.998;2024-01-15T15:56:47;2.27;;;1.20;;